createdAt,value
2019-01-09T00:01:20.509Z,2.82
2019-01-09T00:03:48.793Z,2.85
2019-01-09T00:06:16.859Z,2.80
2019-01-09T00:08:45.326Z,2.87
2019-01-09T00:11:13.253Z,2.88
2019-01-09T00:13:41.295Z,2.89
2019-01-09T00:16:09.638Z,2.89
2019-01-09T00:18:37.770Z,2.88
2019-01-09T00:21:05.828Z,2.91
2019-01-09T00:23:34.709Z,2.91
2019-01-09T00:26:02.769Z,2.91
2019-01-09T00:28:30.976Z,2.92
2019-01-09T00:30:59.719Z,2.93
2019-01-09T00:33:27.509Z,2.94
2019-01-09T00:35:55.611Z,2.96
2019-01-09T00:38:24.249Z,2.92
2019-01-09T00:40:52.288Z,2.91
2019-01-09T00:43:20.489Z,2.86
2019-01-09T00:45:48.849Z,2.84
2019-01-09T00:48:16.932Z,2.77
2019-01-09T00:50:45.128Z,2.76
2019-01-09T00:53:13.835Z,2.35
2019-01-09T00:55:41.765Z,2.66
2019-01-09T00:58:09.933Z,2.55
2019-01-09T01:00:38.526Z,2.53
2019-01-09T01:04:25.758Z,2.49
2019-01-09T01:09:11.660Z,2.33
2019-01-09T01:11:56.488Z,2.16
2019-01-09T01:16:37.569Z,2.15
2019-01-09T01:19:21.373Z,2.18
2019-01-09T01:21:55.158Z,2.18
2019-01-09T01:24:43.687Z,2.23
2019-01-09T01:27:21.731Z,2.26
2019-01-09T01:30:14.660Z,2.27
2019-01-09T01:33:19.366Z,2.28
2019-01-09T01:38:06.320Z,1.93
2019-01-09T01:40:46.379Z,2.33
2019-01-09T01:43:25.367Z,2.32
2019-01-09T01:48:36.486Z,2.36
2019-01-09T01:51:20.504Z,1.75
2019-01-09T01:54:15.412Z,2.28
2019-01-09T01:58:58.095Z,2.46
2019-01-09T02:01:41.376Z,2.49
2019-01-09T02:04:22.648Z,2.50
2019-01-09T02:09:09.188Z,1.97
2019-01-09T02:11:59.146Z,2.49
2019-01-09T02:14:41.160Z,2.49
2019-01-09T02:17:53.291Z,2.49
2019-01-09T02:21:08.019Z,2.50
2019-01-09T02:23:53.039Z,2.50
2019-01-09T02:26:34.577Z,2.52
2019-01-09T02:29:17.696Z,2.52
2019-01-09T02:32:23.854Z,2.55
2019-01-09T02:34:52.308Z,2.29
2019-01-09T02:37:20.835Z,2.55
2019-01-09T02:40:02.422Z,2.56
2019-01-09T02:42:30.976Z,1.92
2019-01-09T02:44:59.038Z,2.59
2019-01-09T02:47:27.021Z,2.58
2019-01-09T02:49:54.986Z,2.58
2019-01-09T02:52:22.968Z,2.58
2019-01-09T02:54:51.121Z,2.59
2019-01-09T02:57:19.373Z,2.57
2019-01-09T02:59:47.469Z,2.56
2019-01-09T03:02:15.751Z,2.57
2019-01-09T03:04:43.809Z,2.53
2019-01-09T03:07:12.213Z,2.53
2019-01-09T03:09:40.166Z,2.52
2019-01-09T03:12:08.227Z,2.52
2019-01-09T03:14:36.815Z,2.49
2019-01-09T03:17:04.968Z,2.49
2019-01-09T03:19:33.082Z,2.48
2019-01-09T03:22:01.812Z,2.46
2019-01-09T03:24:29.769Z,2.43
2019-01-09T03:26:58.011Z,2.42
2019-01-09T03:29:26.332Z,2.41
2019-01-09T03:31:54.331Z,2.42
2019-01-09T03:34:22.308Z,2.42
2019-01-09T03:36:51.131Z,2.41
2019-01-09T03:39:19.017Z,2.38
2019-01-09T03:41:47.142Z,2.40
2019-01-09T03:44:15.805Z,2.41
2019-01-09T03:46:44.086Z,2.41
2019-01-09T03:49:12.254Z,2.41
2019-01-09T03:51:40.621Z,2.40
2019-01-09T03:54:08.634Z,2.39
2019-01-09T03:56:36.709Z,2.41
2019-01-09T03:59:06.615Z,2.40
2019-01-09T04:01:35.566Z,2.38
2019-01-09T04:04:03.899Z,2.37
2019-01-09T04:06:41.632Z,2.36
2019-01-09T04:09:01.892Z,1.59
2019-01-09T04:11:29.893Z,2.34
2019-01-09T04:13:58.495Z,2.34
2019-01-09T04:16:26.569Z,0.84
2019-01-09T04:18:54.556Z,2.30
2019-01-09T04:21:23.155Z,2.26
2019-01-09T04:23:51.041Z,2.26
2019-01-09T04:26:19.111Z,2.27
2019-01-09T04:28:47.752Z,2.27
2019-01-09T04:31:15.687Z,2.26
2019-01-09T04:33:43.882Z,2.25
2019-01-09T04:36:12.245Z,1.59
2019-01-09T04:38:41.660Z,2.21
2019-01-09T04:41:10.261Z,0.69
2019-01-09T04:43:41.740Z,2.20
2019-01-09T04:46:10.301Z,2.06
2019-01-09T04:48:40.924Z,2.17
2019-01-09T04:51:10.794Z,2.16
2019-01-09T04:53:39.100Z,1.82
2019-01-09T04:56:07.110Z,2.17
2019-01-09T04:58:35.252Z,2.17
2019-01-09T05:01:04.135Z,1.86
2019-01-09T05:03:32.835Z,2.13
2019-01-09T05:06:00.756Z,2.10
2019-01-09T05:08:28.966Z,2.04
2019-01-09T05:10:59.850Z,2.04
2019-01-09T05:13:28.087Z,1.87
2019-01-09T05:16:05.845Z,2.01
2019-01-09T05:18:34.090Z,2.00
2019-01-09T05:21:02.296Z,1.98
2019-01-09T05:23:31.082Z,1.95
2019-01-09T05:25:59.375Z,1.93
2019-01-09T05:28:27.529Z,1.93
2019-01-09T05:30:55.607Z,1.90
2019-01-09T05:33:23.359Z,1.90
2019-01-09T05:35:51.345Z,1.91
2019-01-09T05:38:19.787Z,1.92
2019-01-09T05:40:47.889Z,1.91
2019-01-09T05:43:15.992Z,1.90
2019-01-09T05:45:44.149Z,1.88
2019-01-09T05:48:12.345Z,1.85
2019-01-09T05:50:40.182Z,1.72
2019-01-09T05:53:08.746Z,1.81
2019-01-09T05:55:36.811Z,1.68
2019-01-09T05:58:05.103Z,0.60
2019-01-09T06:00:33.080Z,1.83
2019-01-09T06:03:00.886Z,1.83
2019-01-09T06:05:28.910Z,1.79
2019-01-09T06:07:57.224Z,1.54
2019-01-09T06:10:25.309Z,1.79
2019-01-09T06:12:53.466Z,1.80
2019-01-09T06:15:21.659Z,1.80
2019-01-09T06:17:49.807Z,1.80
2019-01-09T06:20:18.765Z,0.27
2019-01-09T06:22:47.329Z,1.62
2019-01-09T06:25:15.329Z,1.73
2019-01-09T06:27:43.093Z,1.72
2019-01-09T06:30:11.662Z,1.73
2019-01-09T06:32:39.441Z,1.71
2019-01-09T06:35:07.458Z,1.70
2019-01-09T06:37:35.944Z,1.67
2019-01-09T06:40:04.370Z,1.63
2019-01-09T06:42:32.476Z,1.65
2019-01-09T06:45:00.783Z,1.63
2019-01-09T06:47:28.628Z,1.61
2019-01-09T06:49:56.421Z,1.63
2019-01-09T06:52:24.792Z,1.63
2019-01-09T06:54:52.601Z,1.64
2019-01-09T06:57:20.614Z,1.64
2019-01-09T06:59:48.689Z,1.62
2019-01-09T07:02:16.687Z,1.58
2019-01-09T07:04:44.935Z,1.53
2019-01-09T07:07:13.341Z,1.51
2019-01-09T07:09:41.601Z,1.49
2019-01-09T07:12:09.501Z,1.48
2019-01-09T07:14:37.834Z,1.48
2019-01-09T07:17:12.374Z,1.48
2019-01-09T07:19:40.231Z,1.47
2019-01-09T07:22:08.305Z,0.35
2019-01-09T07:24:36.489Z,1.48
2019-01-09T07:27:05.524Z,1.47
2019-01-09T07:29:33.470Z,1.45
2019-01-09T07:32:01.470Z,1.44
2019-01-09T07:34:30.070Z,1.42
2019-01-09T07:36:57.915Z,1.39
2019-01-09T07:39:26.067Z,1.40
2019-01-09T07:41:54.052Z,1.40
2019-01-09T07:44:21.825Z,1.41
2019-01-09T07:46:49.757Z,1.42
2019-01-09T07:49:18.449Z,1.43
2019-01-09T07:51:46.689Z,0.33
2019-01-09T07:54:14.432Z,1.45
2019-01-09T07:56:42.613Z,1.44
2019-01-09T07:59:10.721Z,1.44
2019-01-09T08:01:38.532Z,1.43
2019-01-09T08:04:06.969Z,1.39
2019-01-09T08:06:35.151Z,1.40
2019-01-09T08:09:04.976Z,1.26
2019-01-09T08:11:32.782Z,1.41
2019-01-09T08:14:00.666Z,1.43
2019-01-09T08:16:28.689Z,1.44
2019-01-09T08:18:56.829Z,0.10
2019-01-09T08:21:24.678Z,1.47
2019-01-09T08:23:52.737Z,1.31
2019-01-09T08:26:20.686Z,1.25
2019-01-09T08:28:48.626Z,1.53
2019-01-09T08:31:16.720Z,0.83
2019-01-09T08:33:44.809Z,1.53
2019-01-09T08:36:12.615Z,0.56
2019-01-09T08:38:40.610Z,1.52
2019-01-09T08:41:08.719Z,1.52
2019-01-09T08:43:36.497Z,1.50
2019-01-09T08:46:04.322Z,1.49
2019-01-09T08:48:32.558Z,1.49
2019-01-09T08:51:00.520Z,1.49
2019-01-09T08:53:28.374Z,1.50
2019-01-09T08:55:56.733Z,1.48
2019-01-09T08:58:24.516Z,1.48
2019-01-09T09:00:52.432Z,1.45
2019-01-09T09:03:20.600Z,1.43
2019-01-09T09:05:50.745Z,0.53
2019-01-09T09:08:18.694Z,1.44
2019-01-09T09:10:47.146Z,1.43
2019-01-09T09:13:28.079Z,1.42
2019-01-09T09:15:56.372Z,1.39
2019-01-09T09:18:24.117Z,1.37
2019-01-09T09:20:51.905Z,1.39
2019-01-09T09:23:20.021Z,1.39
2019-01-09T09:25:48.137Z,1.42
2019-01-09T09:28:17.389Z,1.43
2019-01-09T09:30:45.581Z,1.45
2019-01-09T09:33:13.614Z,1.11
2019-01-09T09:35:41.473Z,1.50
2019-01-09T09:38:09.986Z,-0.20
2019-01-09T09:40:37.782Z,1.17
2019-01-09T09:43:05.650Z,1.56
2019-01-09T09:45:33.739Z,1.56
2019-01-09T09:48:01.695Z,1.55
2019-01-09T09:50:29.780Z,1.51
2019-01-09T09:52:58.194Z,1.50
2019-01-09T09:55:26.024Z,1.40
2019-01-09T09:57:54.315Z,1.12
2019-01-09T10:00:22.456Z,1.50
2019-01-09T10:02:50.670Z,0.65
2019-01-09T10:05:18.658Z,1.50
2019-01-09T10:07:47.015Z,1.50
2019-01-09T10:10:15.058Z,1.37
2019-01-09T10:12:42.861Z,1.49
2019-01-09T10:15:11.530Z,1.51
2019-01-09T10:17:39.397Z,1.53
2019-01-09T10:20:10.257Z,1.53
2019-01-09T10:22:38.104Z,1.53
2019-01-09T10:25:06.232Z,0.70
2019-01-09T10:27:34.224Z,0.60
2019-01-09T10:30:03.054Z,1.07
2019-01-09T10:32:30.891Z,1.59
2019-01-09T10:34:58.954Z,1.60
2019-01-09T10:37:28.848Z,1.61
2019-01-09T10:39:56.869Z,1.63
2019-01-09T10:42:24.633Z,1.52
2019-01-09T10:44:52.892Z,1.65
2019-01-09T10:47:20.658Z,1.65
2019-01-09T10:49:49.154Z,0.38
2019-01-09T10:52:17.289Z,1.64
2019-01-09T10:54:45.293Z,1.62
2019-01-09T10:57:14.094Z,1.61
2019-01-09T10:59:42.541Z,1.60
2019-01-09T11:02:10.369Z,1.61
2019-01-09T11:04:39.096Z,1.62
2019-01-09T11:07:07.085Z,1.59
2019-01-09T11:09:34.872Z,1.61
2019-01-09T11:12:02.630Z,1.63
2019-01-09T11:14:31.066Z,1.64
2019-01-09T11:17:00.744Z,1.02
2019-01-09T11:19:28.761Z,1.64
2019-01-09T11:21:56.525Z,1.66
2019-01-09T11:24:24.348Z,1.67
2019-01-09T11:26:52.301Z,1.67
2019-01-09T11:29:20.937Z,1.68
2019-01-09T11:31:49.167Z,1.72
2019-01-09T11:34:17.230Z,1.68
2019-01-09T11:36:45.453Z,1.51
2019-01-09T11:39:14.468Z,1.64
2019-01-09T11:41:42.210Z,1.61
2019-01-09T11:44:10.814Z,1.61
2019-01-09T11:46:38.577Z,1.64
2019-01-09T11:49:06.705Z,1.67
2019-01-09T11:51:35.207Z,1.40
2019-01-09T11:54:03.402Z,1.52
2019-01-09T11:56:31.603Z,1.68
2019-01-09T11:58:59.910Z,1.72
2019-01-09T12:01:29.607Z,1.73
2019-01-09T12:03:57.514Z,1.77
2019-01-09T12:06:25.682Z,1.79
2019-01-09T12:08:54.365Z,1.82
2019-01-09T12:11:22.528Z,1.73
2019-01-09T12:13:53.235Z,1.87
2019-01-09T12:16:19.188Z,1.52
2019-01-09T12:18:47.184Z,0.35
2019-01-09T12:21:16.952Z,1.91
2019-01-09T12:23:43.613Z,1.90
2019-01-09T12:26:13.927Z,1.92
2019-01-09T12:28:48.925Z,1.92
2019-01-09T12:31:13.257Z,1.94
2019-01-09T12:33:41.413Z,1.92
2019-01-09T12:36:09.890Z,1.89
2019-01-09T12:38:41.160Z,1.87
2019-01-09T12:41:09.010Z,1.85
2019-01-09T12:43:38.362Z,1.78
2019-01-09T12:46:06.296Z,1.35
2019-01-09T12:48:34.151Z,1.73
2019-01-09T12:51:05.575Z,1.70
2019-01-09T12:53:35.393Z,1.68
2019-01-09T12:56:03.718Z,1.24
2019-01-09T12:58:32.343Z,1.54
2019-01-09T13:01:01.970Z,1.49
2019-01-09T13:03:30.060Z,0.92
2019-01-09T13:05:58.696Z,1.35
2019-01-09T13:08:27.128Z,1.16
2019-01-09T13:10:55.071Z,1.23
2019-01-09T13:13:27.066Z,1.23
2019-01-09T13:15:56.510Z,1.19
2019-01-09T13:18:27.127Z,1.13
2019-01-09T13:20:54.967Z,0.79
2019-01-09T13:23:23.436Z,1.17
2019-01-09T13:25:52.129Z,1.17
2019-01-09T13:28:26.768Z,1.17
2019-01-09T13:30:55.738Z,1.17
2019-01-09T13:33:23.813Z,1.18
2019-01-09T13:35:58.047Z,1.16
2019-01-09T13:38:27.516Z,1.13
2019-01-09T13:40:56.034Z,1.13
2019-01-09T13:43:26.947Z,1.13
2019-01-09T13:46:00.518Z,1.15
2019-01-09T13:48:29.424Z,1.14
2019-01-09T13:51:04.891Z,1.09
2019-01-09T13:53:33.602Z,1.11
2019-01-09T13:56:04.565Z,1.11
2019-01-09T13:58:33.427Z,0.96
2019-01-09T14:01:03.375Z,1.12
2019-01-09T14:03:31.829Z,1.11
2019-01-09T14:05:59.688Z,1.10
2019-01-09T14:08:28.142Z,1.08
2019-01-09T14:10:56.027Z,1.06
2019-01-09T14:13:24.156Z,1.00
2019-01-09T14:15:52.534Z,1.02
2019-01-09T14:18:23.315Z,1.02
2019-01-09T14:20:53.194Z,1.02
2019-01-09T14:23:21.288Z,1.02
2019-01-09T14:25:53.642Z,1.04
2019-01-09T14:28:21.793Z,1.03
2019-01-09T14:30:50.070Z,1.05
2019-01-09T14:33:25.904Z,1.06
2019-01-09T14:35:54.146Z,1.07
2019-01-09T14:38:22.024Z,1.09
2019-01-09T14:40:51.576Z,1.09
2019-01-09T14:43:19.973Z,1.11
2019-01-09T14:45:48.747Z,1.13
2019-01-09T14:48:18.630Z,1.14
2019-01-09T14:50:47.678Z,1.16
2019-01-09T14:53:15.024Z,1.17
2019-01-09T14:55:45.024Z,1.17
2019-01-09T14:58:12.990Z,1.19
2019-01-09T15:00:41.566Z,1.21
2019-01-09T15:03:10.920Z,1.22
2019-01-09T15:05:39.562Z,1.23
2019-01-09T15:08:08.020Z,1.26
2019-01-09T15:10:36.580Z,1.27
2019-01-09T15:13:06.128Z,1.28
2019-01-09T15:15:34.651Z,1.04
2019-01-09T15:18:09.097Z,1.29
2019-01-09T15:20:40.459Z,1.30
2019-01-09T15:23:10.824Z,1.31
2019-01-09T15:25:40.236Z,1.33
2019-01-09T15:28:08.845Z,1.34
2019-01-09T15:30:41.159Z,1.34
2019-01-09T15:33:10.379Z,1.08
2019-01-09T15:35:40.334Z,1.35
2019-01-09T15:38:08.889Z,1.36
2019-01-09T15:40:36.815Z,1.37
2019-01-09T15:43:06.705Z,1.38
2019-01-09T15:45:35.522Z,1.38
2019-01-09T15:48:03.871Z,1.38
2019-01-09T15:50:37.920Z,1.39
2019-01-09T15:53:05.825Z,0.56
2019-01-09T15:55:33.840Z,1.37
2019-01-09T15:58:01.863Z,1.37
2019-01-09T16:00:36.424Z,1.38
2019-01-09T16:03:05.459Z,1.39
2019-01-09T16:05:34.125Z,1.36
2019-01-09T16:08:02.703Z,1.36
2019-01-09T16:10:30.903Z,1.36
2019-01-09T16:13:02.795Z,1.25
2019-01-09T16:15:32.935Z,1.24
2019-01-09T16:18:04.733Z,1.01
2019-01-09T16:20:33.804Z,1.38
2019-01-09T16:23:04.300Z,1.38
2019-01-09T16:25:33.762Z,1.40
2019-01-09T16:28:06.266Z,1.29
2019-01-09T16:30:40.669Z,1.43
2019-01-09T16:33:08.834Z,1.44
2019-01-09T16:35:38.064Z,1.08
2019-01-09T16:38:10.238Z,1.46
2019-01-09T16:40:38.278Z,1.46
2019-01-09T16:43:06.610Z,1.47
2019-01-09T16:45:37.815Z,1.46
2019-01-09T16:48:08.206Z,1.47
2019-01-09T16:50:36.510Z,1.21
2019-01-09T16:53:04.778Z,1.20
2019-01-09T16:55:34.015Z,1.33
2019-01-09T16:58:06.189Z,1.43
2019-01-09T17:00:36.387Z,1.47
2019-01-09T17:03:04.962Z,1.47
2019-01-09T17:05:33.447Z,1.46
2019-01-09T17:08:03.949Z,1.46
2019-01-09T17:10:32.863Z,1.45
2019-01-09T17:13:03.236Z,0.98
2019-01-09T17:15:32.743Z,1.46
2019-01-09T17:18:00.934Z,1.44
2019-01-09T17:20:28.918Z,1.43
2019-01-09T17:22:59.701Z,1.43
2019-01-09T17:25:28.047Z,1.40
2019-01-09T17:27:58.514Z,1.42
2019-01-09T17:30:28.837Z,1.41
2019-01-09T17:33:01.954Z,1.41
2019-01-09T17:35:31.606Z,1.40
2019-01-09T17:38:04.129Z,1.40
2019-01-09T17:40:40.922Z,1.39
2019-01-09T17:43:01.553Z,1.37
2019-01-09T17:45:32.813Z,1.35
2019-01-09T17:48:03.563Z,1.34
2019-01-09T17:50:34.849Z,1.33
2019-01-09T17:53:04.109Z,1.33
2019-01-09T17:55:35.462Z,1.32
2019-01-09T17:58:03.953Z,1.31
2019-01-09T18:00:36.636Z,1.28
2019-01-09T18:03:04.850Z,1.25
2019-01-09T18:05:33.341Z,1.24
2019-01-09T18:08:10.113Z,1.22
2019-01-09T18:10:31.637Z,1.20
2019-01-09T18:12:59.854Z,1.20
2019-01-09T18:15:29.006Z,0.08
2019-01-09T18:17:59.932Z,1.19
2019-01-09T18:20:28.106Z,1.20
2019-01-09T18:22:58.835Z,1.08
2019-01-09T18:25:28.460Z,1.21
2019-01-09T18:27:57.378Z,1.21
2019-01-09T18:30:34.435Z,1.21
2019-01-09T18:33:09.289Z,1.21
2019-01-09T18:35:49.349Z,0.94
2019-01-09T18:39:01.749Z,1.17
2019-01-09T18:41:43.582Z,1.17
2019-01-09T18:44:20.304Z,1.16
2019-01-09T18:46:59.669Z,1.15
2019-01-09T18:49:52.998Z,1.13
2019-01-09T18:52:31.978Z,1.08
2019-01-09T18:55:02.925Z,0.94
2019-01-09T18:57:31.921Z,1.04
2019-01-09T19:00:00.025Z,1.05
2019-01-09T19:02:28.510Z,0.91
2019-01-09T19:04:57.122Z,1.04
2019-01-09T19:07:25.102Z,1.02
2019-01-09T19:09:53.561Z,1.02
2019-01-09T19:12:22.349Z,1.01
2019-01-09T19:14:52.921Z,0.01
2019-01-09T19:17:21.743Z,1.02
2019-01-09T19:19:54.374Z,1.02
2019-01-09T19:22:22.313Z,1.03
2019-01-09T19:24:50.416Z,1.03
2019-01-09T19:27:18.235Z,0.77
2019-01-09T19:29:46.174Z,0.99
2019-01-09T19:32:14.873Z,0.96
2019-01-09T19:34:42.890Z,0.98
2019-01-09T19:37:10.937Z,1.00
2019-01-09T19:39:38.883Z,1.00
2019-01-09T19:42:08.095Z,0.86
2019-01-09T19:44:36.841Z,0.97
2019-01-09T19:47:05.038Z,0.94
2019-01-09T19:49:33.084Z,0.92
2019-01-09T19:52:01.400Z,0.88
2019-01-09T19:54:29.373Z,0.88
2019-01-09T19:56:57.859Z,0.85
2019-01-09T19:59:26.458Z,0.86
2019-01-09T20:01:54.833Z,0.86
2019-01-09T20:04:24.205Z,0.84
2019-01-09T20:06:54.581Z,0.84
2019-01-09T20:09:22.683Z,0.89
2019-01-09T20:11:51.112Z,0.64
2019-01-09T20:14:19.103Z,0.90
2019-01-09T20:16:47.966Z,0.91
2019-01-09T20:19:15.866Z,0.91
2019-01-09T20:21:43.757Z,0.87
2019-01-09T20:24:11.644Z,0.86
2019-01-09T20:26:39.680Z,0.87
2019-01-09T20:29:08.162Z,0.85
2019-01-09T20:31:36.435Z,0.86
2019-01-09T20:34:04.470Z,0.88
2019-01-09T20:36:32.564Z,0.87
2019-01-09T20:39:00.579Z,0.86
2019-01-09T20:41:35.195Z,0.36
2019-01-09T20:43:56.404Z,0.82
2019-01-09T20:46:24.713Z,0.82
2019-01-09T20:48:53.260Z,0.82
2019-01-09T20:51:21.647Z,0.81
2019-01-09T20:53:49.964Z,0.82
2019-01-09T20:56:18.315Z,0.81
2019-01-09T20:58:46.145Z,0.55
2019-01-09T21:01:15.077Z,0.42
2019-01-09T21:03:43.691Z,0.53
2019-01-09T21:06:11.608Z,0.39
2019-01-09T21:08:40.072Z,0.64
2019-01-09T21:11:08.089Z,0.77
2019-01-09T21:13:37.069Z,0.50
2019-01-09T21:16:06.034Z,0.75
2019-01-09T21:18:33.937Z,0.75
2019-01-09T21:21:02.121Z,0.75
2019-01-09T21:23:31.181Z,0.76
2019-01-09T21:25:59.031Z,0.76
2019-01-09T21:28:26.800Z,0.75
2019-01-09T21:30:55.053Z,0.76
2019-01-09T21:33:24.474Z,0.78
2019-01-09T21:35:52.662Z,0.40
2019-01-09T21:38:20.951Z,0.76
2019-01-09T21:40:49.366Z,0.76
2019-01-09T21:43:17.581Z,0.75
2019-01-09T21:45:46.223Z,0.74
2019-01-09T21:48:15.424Z,0.75
2019-01-09T21:50:44.868Z,0.75
2019-01-09T21:53:13.397Z,0.63
2019-01-09T21:55:41.735Z,0.75
2019-01-09T21:58:10.276Z,0.78
2019-01-09T22:00:38.974Z,0.80
2019-01-09T22:03:07.788Z,0.79
2019-01-09T22:05:38.902Z,0.79
2019-01-09T22:08:07.398Z,0.80
2019-01-09T22:10:37.641Z,0.80
2019-01-09T22:13:06.912Z,0.80
2019-01-09T22:15:36.925Z,0.68
2019-01-09T22:18:06.123Z,-1.42
2019-01-09T22:20:35.666Z,0.68
2019-01-09T22:23:04.681Z,0.81
2019-01-09T22:25:33.123Z,0.47
2019-01-09T22:28:01.042Z,0.83
2019-01-09T22:30:29.694Z,0.57
2019-01-09T22:32:57.988Z,0.85
2019-01-09T22:35:27.086Z,0.85
2019-01-09T22:37:55.212Z,0.33
2019-01-09T22:40:23.195Z,0.87
2019-01-09T22:42:51.898Z,0.87
2019-01-09T22:45:20.997Z,0.88
2019-01-09T22:47:49.818Z,0.89
2019-01-09T22:50:21.054Z,0.88
2019-01-09T22:52:50.986Z,0.73
2019-01-09T22:55:19.791Z,0.85
2019-01-09T22:57:48.342Z,0.88
2019-01-09T23:00:36.828Z,0.89
2019-01-09T23:03:07.870Z,0.89
2019-01-09T23:05:38.006Z,0.87
2019-01-09T23:08:06.081Z,0.90
2019-01-09T23:10:34.715Z,0.91
2019-01-09T23:13:03.155Z,0.75
2019-01-09T23:15:31.685Z,0.89
2019-01-09T23:18:00.934Z,0.89
2019-01-09T23:20:29.490Z,0.87
2019-01-09T23:22:57.646Z,0.88
2019-01-09T23:25:25.929Z,0.88
2019-01-09T23:27:55.188Z,0.88
2019-01-09T23:30:25.059Z,0.87
2019-01-09T23:32:53.983Z,0.88
2019-01-09T23:35:22.518Z,0.87
2019-01-09T23:37:51.919Z,0.86
2019-01-09T23:40:20.608Z,0.87
2019-01-09T23:42:48.794Z,0.87
2019-01-09T23:45:16.918Z,0.88
2019-01-09T23:47:45.873Z,0.48
2019-01-09T23:50:14.101Z,0.87
2019-01-09T23:52:42.655Z,0.86
2019-01-09T23:55:10.875Z,0.85
2019-01-09T23:57:39.094Z,0.86
